sensor_id;sensor_type;location;lat;lon;timestamp;P1;durP1;ratioP1;P2;durP2;ratioP2
15665;SDS011;20725;51.196;3.510;2022-08-07T00:01:25;7.53;;;4.30;;
15665;SDS011;20725;51.196;3.510;2022-08-07T00:03:55;4.40;;;3.97;;
15665;SDS011;20725;51.196;3.510;2022-08-07T00:06:22;4.17;;;3.77;;
15665;SDS011;20725;51.196;3.510;2022-08-07T00:08:52;5.13;;;3.90;;
15665;SDS011;20725;51.196;3.510;2022-08-07T00:11:23;5.13;;;3.70;;
15665;SDS011;20725;51.196;3.510;2022-08-07T00:13:52;4.20;;;3.60;;
15665;SDS011;20725;51.196;3.510;2022-08-07T00:16:21;5.77;;;3.93;;
15665;SDS011;20725;51.196;3.510;2022-08-07T00:18:48;6.10;;;4.07;;
15665;SDS011;20725;51.196;3.510;2022-08-07T00:21:18;8.87;;;4.33;;
15665;SDS011;20725;51.196;3.510;2022-08-07T00:23:46;7.53;;;4.40;;
15665;SDS011;20725;51.196;3.510;2022-08-07T00:26:13;11.77;;;4.70;;
15665;SDS011;20725;51.196;3.510;2022-08-07T00:28:44;15.73;;;5.83;;
15665;SDS011;20725;51.196;3.510;2022-08-07T00:31:19;6.20;;;5.63;;
15665;SDS011;20725;51.196;3.510;2022-08-07T00:33:51;7.73;;;5.17;;
15665;SDS011;20725;51.196;3.510;2022-08-07T00:36:21;7.80;;;4.77;;
15665;SDS011;20725;51.196;3.510;2022-08-07T00:38:48;8.00;;;3.87;;
15665;SDS011;20725;51.196;3.510;2022-08-07T00:41:23;5.00;;;4.17;;
15665;SDS011;20725;51.196;3.510;2022-08-07T00:43:54;5.00;;;4.40;;
15665;SDS011;20725;51.196;3.510;2022-08-07T00:46:21;7.07;;;4.50;;
15665;SDS011;20725;51.196;3.510;2022-08-07T00:48:52;5.23;;;4.47;;
15665;SDS011;20725;51.196;3.510;2022-08-07T00:51:19;5.17;;;3.90;;
15665;SDS011;20725;51.196;3.510;2022-08-07T00:53:46;9.00;;;4.77;;
15665;SDS011;20725;51.196;3.510;2022-08-07T00:56:13;5.53;;;4.30;;
15665;SDS011;20725;51.196;3.510;2022-08-07T00:58:41;7.80;;;5.00;;
15665;SDS011;20725;51.196;3.510;2022-08-07T01:01:12;8.60;;;4.80;;
15665;SDS011;20725;51.196;3.510;2022-08-07T01:03:39;4.70;;;4.30;;
15665;SDS011;20725;51.196;3.510;2022-08-07T01:06:09;5.70;;;4.50;;
15665;SDS011;20725;51.196;3.510;2022-08-07T01:08:36;5.60;;;4.40;;
15665;SDS011;20725;51.196;3.510;2022-08-07T01:11:05;6.23;;;5.17;;
15665;SDS011;20725;51.196;3.510;2022-08-07T01:13:33;6.17;;;5.00;;
15665;SDS011;20725;51.196;3.510;2022-08-07T01:16:01;5.50;;;5.00;;
15665;SDS011;20725;51.196;3.510;2022-08-07T01:18:32;5.53;;;5.03;;
15665;SDS011;20725;51.196;3.510;2022-08-07T01:21:06;5.40;;;4.90;;
15665;SDS011;20725;51.196;3.510;2022-08-07T01:23:36;5.63;;;5.00;;
15665;SDS011;20725;51.196;3.510;2022-08-07T01:26:04;6.50;;;4.93;;
15665;SDS011;20725;51.196;3.510;2022-08-07T01:28:33;5.97;;;5.43;;
15665;SDS011;20725;51.196;3.510;2022-08-07T01:31:01;5.70;;;5.20;;
15665;SDS011;20725;51.196;3.510;2022-08-07T01:33:28;5.50;;;5.00;;
15665;SDS011;20725;51.196;3.510;2022-08-07T01:35:57;6.87;;;5.17;;
15665;SDS011;20725;51.196;3.510;2022-08-07T01:38:28;5.63;;;4.80;;
15665;SDS011;20725;51.196;3.510;2022-08-07T01:40:59;6.43;;;5.10;;
15665;SDS011;20725;51.196;3.510;2022-08-07T01:43:29;5.90;;;5.27;;
15665;SDS011;20725;51.196;3.510;2022-08-07T01:45:58;7.00;;;5.33;;
15665;SDS011;20725;51.196;3.510;2022-08-07T01:48:25;7.27;;;5.50;;
15665;SDS011;20725;51.196;3.510;2022-08-07T01:50:54;5.93;;;5.43;;
15665;SDS011;20725;51.196;3.510;2022-08-07T01:53:35;6.70;;;6.03;;
15665;SDS011;20725;51.196;3.510;2022-08-07T01:56:12;6.63;;;5.73;;
15665;SDS011;20725;51.196;3.510;2022-08-07T01:58:43;6.00;;;5.50;;
15665;SDS011;20725;51.196;3.510;2022-08-07T02:06:19;8.87;;;6.60;;
15665;SDS011;20725;51.196;3.510;2022-08-07T02:08:50;7.30;;;6.70;;
15665;SDS011;20725;51.196;3.510;2022-08-07T02:11:19;7.77;;;7.03;;
15665;SDS011;20725;51.196;3.510;2022-08-07T02:13:46;6.57;;;6.00;;
15665;SDS011;20725;51.196;3.510;2022-08-07T02:16:15;8.33;;;6.40;;
15665;SDS011;20725;51.196;3.510;2022-08-07T02:18:43;7.80;;;7.10;;
15665;SDS011;20725;51.196;3.510;2022-08-07T02:21:12;6.97;;;6.37;;
15665;SDS011;20725;51.196;3.510;2022-08-07T02:23:42;7.80;;;7.20;;
15665;SDS011;20725;51.196;3.510;2022-08-07T02:26:15;7.53;;;6.93;;
15665;SDS011;20725;51.196;3.510;2022-08-07T02:28:43;7.70;;;6.87;;
15665;SDS011;20725;51.196;3.510;2022-08-07T02:31:13;7.43;;;6.73;;
15665;SDS011;20725;51.196;3.510;2022-08-07T02:33:41;10.73;;;7.43;;
15665;SDS011;20725;51.196;3.510;2022-08-07T02:36:09;7.27;;;6.57;;
15665;SDS011;20725;51.196;3.510;2022-08-07T02:38:37;6.73;;;6.13;;
15665;SDS011;20725;51.196;3.510;2022-08-07T02:41:08;7.10;;;6.47;;
15665;SDS011;20725;51.196;3.510;2022-08-07T02:43:40;6.43;;;5.83;;
15665;SDS011;20725;51.196;3.510;2022-08-07T02:46:09;8.53;;;6.77;;
15665;SDS011;20725;51.196;3.510;2022-08-07T02:48:37;7.90;;;7.20;;
15665;SDS011;20725;51.196;3.510;2022-08-07T02:51:09;7.30;;;6.60;;
15665;SDS011;20725;51.196;3.510;2022-08-07T02:53:38;8.37;;;6.93;;
15665;SDS011;20725;51.196;3.510;2022-08-07T02:56:10;8.63;;;7.77;;
15665;SDS011;20725;51.196;3.510;2022-08-07T02:58:41;8.70;;;7.90;;
15665;SDS011;20725;51.196;3.510;2022-08-07T03:01:14;8.10;;;7.33;;
15665;SDS011;20725;51.196;3.510;2022-08-07T03:03:45;7.27;;;6.60;;
15665;SDS011;20725;51.196;3.510;2022-08-07T03:06:18;8.37;;;7.77;;
15665;SDS011;20725;51.196;3.510;2022-08-07T03:08:47;8.53;;;7.73;;
15665;SDS011;20725;51.196;3.510;2022-08-07T03:11:15;8.57;;;7.70;;
15665;SDS011;20725;51.196;3.510;2022-08-07T03:13:44;9.83;;;8.83;;
15665;SDS011;20725;51.196;3.510;2022-08-07T03:16:12;8.50;;;7.70;;
15665;SDS011;20725;51.196;3.510;2022-08-07T03:18:39;8.27;;;7.47;;
15665;SDS011;20725;51.196;3.510;2022-08-07T03:21:07;8.83;;;8.00;;
15665;SDS011;20725;51.196;3.510;2022-08-07T03:23:38;8.83;;;8.03;;
15665;SDS011;20725;51.196;3.510;2022-08-07T03:26:08;8.93;;;8.13;;
15665;SDS011;20725;51.196;3.510;2022-08-07T03:28:36;8.93;;;8.10;;
15665;SDS011;20725;51.196;3.510;2022-08-07T03:31:07;8.40;;;7.60;;
15665;SDS011;20725;51.196;3.510;2022-08-07T03:33:47;8.40;;;7.60;;
15665;SDS011;20725;51.196;3.510;2022-08-07T03:36:17;8.83;;;8.00;;
15665;SDS011;20725;51.196;3.510;2022-08-07T03:38:46;8.93;;;8.03;;
15665;SDS011;20725;51.196;3.510;2022-08-07T03:41:15;14.37;;;8.20;;
15665;SDS011;20725;51.196;3.510;2022-08-07T03:43:43;12.57;;;10.47;;
15665;SDS011;20725;51.196;3.510;2022-08-07T03:46:14;10.27;;;9.37;;
15665;SDS011;20725;51.196;3.510;2022-08-07T03:48:44;11.17;;;10.13;;
15665;SDS011;20725;51.196;3.510;2022-08-07T03:51:13;8.17;;;7.47;;
15665;SDS011;20725;51.196;3.510;2022-08-07T03:53:41;8.97;;;8.07;;
15665;SDS011;20725;51.196;3.510;2022-08-07T03:56:12;9.23;;;7.37;;
15665;SDS011;20725;51.196;3.510;2022-08-07T03:58:53;9.20;;;8.30;;
15665;SDS011;20725;51.196;3.510;2022-08-07T04:01:22;10.10;;;8.57;;
15665;SDS011;20725;51.196;3.510;2022-08-07T04:03:57;11.63;;;8.90;;
15665;SDS011;20725;51.196;3.510;2022-08-07T04:06:27;10.80;;;9.70;;
15665;SDS011;20725;51.196;3.510;2022-08-07T04:08:58;11.17;;;9.70;;
15665;SDS011;20725;51.196;3.510;2022-08-07T04:11:27;10.73;;;9.67;;
15665;SDS011;20725;51.196;3.510;2022-08-07T04:13:55;12.17;;;9.90;;
15665;SDS011;20725;51.196;3.510;2022-08-07T04:16:46;11.43;;;10.20;;
15665;SDS011;20725;51.196;3.510;2022-08-07T04:20:42;11.83;;;10.63;;
15665;SDS011;20725;51.196;3.510;2022-08-07T04:22:49;10.33;;;9.33;;
15665;SDS011;20725;51.196;3.510;2022-08-07T04:25:26;10.43;;;9.43;;
15665;SDS011;20725;51.196;3.510;2022-08-07T04:28:10;11.43;;;10.20;;
15665;SDS011;20725;51.196;3.510;2022-08-07T04:30:39;11.53;;;10.43;;
15665;SDS011;20725;51.196;3.510;2022-08-07T04:33:28;10.73;;;9.67;;
15665;SDS011;20725;51.196;3.510;2022-08-07T04:36:01;12.00;;;10.47;;
15665;SDS011;20725;51.196;3.510;2022-08-07T04:38:33;11.07;;;9.97;;
15665;SDS011;20725;51.196;3.510;2022-08-07T04:41:08;10.17;;;9.07;;
15665;SDS011;20725;51.196;3.510;2022-08-07T04:43:40;11.50;;;9.80;;
15665;SDS011;20725;51.196;3.510;2022-08-07T04:46:28;10.53;;;9.53;;
15665;SDS011;20725;51.196;3.510;2022-08-07T04:49:17;12.07;;;8.43;;
15665;SDS011;20725;51.196;3.510;2022-08-07T04:51:52;11.50;;;9.33;;
15665;SDS011;20725;51.196;3.510;2022-08-07T04:54:32;12.23;;;9.60;;
15665;SDS011;20725;51.196;3.510;2022-08-07T04:57:29;10.30;;;9.27;;
15665;SDS011;20725;51.196;3.510;2022-08-07T05:00:15;11.27;;;9.87;;
15665;SDS011;20725;51.196;3.510;2022-08-07T05:03:07;10.00;;;9.00;;
15665;SDS011;20725;51.196;3.510;2022-08-07T05:06:16;12.87;;;8.97;;
15665;SDS011;20725;51.196;3.510;2022-08-07T05:08:55;12.23;;;8.93;;
15665;SDS011;20725;51.196;3.510;2022-08-07T05:11:49;10.63;;;9.63;;
15665;SDS011;20725;51.196;3.510;2022-08-07T05:14:31;12.03;;;10.33;;
15665;SDS011;20725;51.196;3.510;2022-08-07T05:17:16;10.57;;;9.57;;
15665;SDS011;20725;51.196;3.510;2022-08-07T05:20:02;13.23;;;9.70;;
15665;SDS011;20725;51.196;3.510;2022-08-07T05:22:57;12.83;;;11.43;;
15665;SDS011;20725;51.196;3.510;2022-08-07T05:25:41;12.87;;;11.63;;
15665;SDS011;20725;51.196;3.510;2022-08-07T05:28:19;13.53;;;11.70;;
15665;SDS011;20725;51.196;3.510;2022-08-07T05:30:51;15.80;;;11.50;;
15665;SDS011;20725;51.196;3.510;2022-08-07T05:33:37;12.97;;;11.70;;
15665;SDS011;20725;51.196;3.510;2022-08-07T05:36:13;12.83;;;11.70;;
15665;SDS011;20725;51.196;3.510;2022-08-07T05:38:57;12.30;;;11.13;;
15665;SDS011;20725;51.196;3.510;2022-08-07T05:41:27;12.80;;;11.50;;
15665;SDS011;20725;51.196;3.510;2022-08-07T05:44:23;14.30;;;11.87;;
15665;SDS011;20725;51.196;3.510;2022-08-07T05:47:05;14.33;;;12.93;;
15665;SDS011;20725;51.196;3.510;2022-08-07T05:49:39;13.07;;;11.93;;
15665;SDS011;20725;51.196;3.510;2022-08-07T05:52:16;12.70;;;11.57;;
15665;SDS011;20725;51.196;3.510;2022-08-07T05:55:04;15.03;;;12.97;;
15665;SDS011;20725;51.196;3.510;2022-08-07T05:57:44;13.17;;;11.97;;
15665;SDS011;20725;51.196;3.510;2022-08-07T06:00:15;13.03;;;11.70;;
15665;SDS011;20725;51.196;3.510;2022-08-07T06:03:03;13.47;;;12.07;;
15665;SDS011;20725;51.196;3.510;2022-08-07T06:06:18;12.67;;;11.50;;
15665;SDS011;20725;51.196;3.510;2022-08-07T06:09:21;13.07;;;11.07;;
15665;SDS011;20725;51.196;3.510;2022-08-07T06:14:51;10.47;;;9.43;;
15665;SDS011;20725;51.196;3.510;2022-08-07T06:17:22;9.43;;;8.63;;
15665;SDS011;20725;51.196;3.510;2022-08-07T06:19:59;9.70;;;9.00;;
15665;SDS011;20725;51.196;3.510;2022-08-07T06:25:35;9.00;;;8.10;;
15665;SDS011;20725;51.196;3.510;2022-08-07T06:28:16;9.87;;;8.40;;
15665;SDS011;20725;51.196;3.510;2022-08-07T06:33:59;7.70;;;7.10;;
15665;SDS011;20725;51.196;3.510;2022-08-07T06:36:29;10.40;;;7.17;;
15665;SDS011;20725;51.196;3.510;2022-08-07T06:42:13;11.63;;;6.50;;
15665;SDS011;20725;51.196;3.510;2022-08-07T06:44:54;7.73;;;7.03;;
15665;SDS011;20725;51.196;3.510;2022-08-07T06:47:26;7.13;;;6.53;;
15665;SDS011;20725;51.196;3.510;2022-08-07T06:49:58;7.90;;;7.17;;
15665;SDS011;20725;51.196;3.510;2022-08-07T06:52:36;9.43;;;6.73;;
15665;SDS011;20725;51.196;3.510;2022-08-07T06:55:12;7.37;;;6.77;;
15665;SDS011;20725;51.196;3.510;2022-08-07T06:57:46;6.20;;;5.70;;
15665;SDS011;20725;51.196;3.510;2022-08-07T07:00:19;6.93;;;5.37;;
15665;SDS011;20725;51.196;3.510;2022-08-07T07:02:56;10.10;;;5.47;;
15665;SDS011;20725;51.196;3.510;2022-08-07T07:05:32;6.80;;;5.13;;
15665;SDS011;20725;51.196;3.510;2022-08-07T07:08:25;6.13;;;4.93;;
15665;SDS011;20725;51.196;3.510;2022-08-07T07:10:53;5.23;;;4.80;;
15665;SDS011;20725;51.196;3.510;2022-08-07T07:13:25;4.80;;;4.20;;
15665;SDS011;20725;51.196;3.510;2022-08-07T07:15:59;4.50;;;4.10;;
15665;SDS011;20725;51.196;3.510;2022-08-07T07:18:34;4.63;;;3.93;;
15665;SDS011;20725;51.196;3.510;2022-08-07T07:21:25;5.10;;;4.17;;
15665;SDS011;20725;51.196;3.510;2022-08-07T07:24:11;5.00;;;3.70;;
15665;SDS011;20725;51.196;3.510;2022-08-07T07:26:49;7.07;;;3.73;;
15665;SDS011;20725;51.196;3.510;2022-08-07T07:29:24;4.23;;;3.93;;
15665;SDS011;20725;51.196;3.510;2022-08-07T07:31:58;4.27;;;3.87;;
15665;SDS011;20725;51.196;3.510;2022-08-07T07:34:53;4.13;;;3.73;;
15665;SDS011;20725;51.196;3.510;2022-08-07T07:40:18;4.25;;;3.50;;
15665;SDS011;20725;51.196;3.510;2022-08-07T07:42:49;3.95;;;3.65;;
15665;SDS011;20725;51.196;3.510;2022-08-07T07:45:27;3.22;;;2.85;;
15665;SDS011;20725;51.196;3.510;2022-08-07T07:48:01;2.90;;;2.58;;
15665;SDS011;20725;51.196;3.510;2022-08-07T07:50:44;3.78;;;2.00;;
15665;SDS011;20725;51.196;3.510;2022-08-07T07:53:21;3.97;;;1.90;;
15665;SDS011;20725;51.196;3.510;2022-08-07T07:55:50;3.58;;;1.80;;
15665;SDS011;20725;51.196;3.510;2022-08-07T07:58:25;2.85;;;2.03;;
15665;SDS011;20725;51.196;3.510;2022-08-07T08:00:59;1.73;;;1.63;;
15665;SDS011;20725;51.196;3.510;2022-08-07T08:03:33;1.60;;;1.50;;
15665;SDS011;20725;51.196;3.510;2022-08-07T08:06:05;2.50;;;1.50;;
15665;SDS011;20725;51.196;3.510;2022-08-07T08:11:46;1.80;;;1.70;;
15665;SDS011;20725;51.196;3.510;2022-08-07T08:14:47;2.30;;;1.60;;
15665;SDS011;20725;51.196;3.510;2022-08-07T08:17:33;1.85;;;1.30;;
15665;SDS011;20725;51.196;3.510;2022-08-07T08:20:06;5.13;;;1.35;;
15665;SDS011;20725;51.196;3.510;2022-08-07T08:22:39;1.45;;;1.25;;
15665;SDS011;20725;51.196;3.510;2022-08-07T08:25:25;2.85;;;1.10;;
15665;SDS011;20725;51.196;3.510;2022-08-07T08:28:17;2.80;;;1.50;;
15665;SDS011;20725;51.196;3.510;2022-08-07T08:30:52;2.05;;;1.70;;
15665;SDS011;20725;51.196;3.510;2022-08-07T08:33:21;2.22;;;1.50;;
15665;SDS011;20725;51.196;3.510;2022-08-07T08:35:54;2.67;;;1.30;;
15665;SDS011;20725;51.196;3.510;2022-08-07T08:38:26;2.65;;;1.38;;
15665;SDS011;20725;51.196;3.510;2022-08-07T08:41:03;1.98;;;1.35;;
15665;SDS011;20725;51.196;3.510;2022-08-07T08:43:44;1.55;;;1.25;;
15665;SDS011;20725;51.196;3.510;2022-08-07T08:46:31;2.63;;;1.00;;
15665;SDS011;20725;51.196;3.510;2022-08-07T08:49:07;1.63;;;1.23;;
15665;SDS011;20725;51.196;3.510;2022-08-07T08:51:54;2.25;;;1.00;;
15665;SDS011;20725;51.196;3.510;2022-08-07T08:54:42;1.42;;;0.88;;
15665;SDS011;20725;51.196;3.510;2022-08-07T08:57:25;1.77;;;0.90;;
15665;SDS011;20725;51.196;3.510;2022-08-07T09:00:14;1.35;;;0.90;;
15665;SDS011;20725;51.196;3.510;2022-08-07T09:02:46;0.88;;;0.88;;
15665;SDS011;20725;51.196;3.510;2022-08-07T09:05:31;2.60;;;0.90;;
15665;SDS011;20725;51.196;3.510;2022-08-07T09:08:37;1.45;;;0.90;;
15665;SDS011;20725;51.196;3.510;2022-08-07T09:11:14;0.80;;;0.80;;
15665;SDS011;20725;51.196;3.510;2022-08-07T09:13:47;2.22;;;1.25;;
15665;SDS011;20725;51.196;3.510;2022-08-07T09:16:35;2.10;;;1.33;;
15665;SDS011;20725;51.196;3.510;2022-08-07T09:19:22;2.97;;;1.17;;
15665;SDS011;20725;51.196;3.510;2022-08-07T09:22:13;3.38;;;1.50;;
15665;SDS011;20725;51.196;3.510;2022-08-07T09:24:58;1.60;;;1.23;;
15665;SDS011;20725;51.196;3.510;2022-08-07T09:27:43;1.17;;;0.77;;
15665;SDS011;20725;51.196;3.510;2022-08-07T09:30:18;4.65;;;0.90;;
15665;SDS011;20725;51.196;3.510;2022-08-07T09:33:00;4.55;;;0.88;;
15665;SDS011;20725;51.196;3.510;2022-08-07T09:35:41;1.42;;;1.02;;
15665;SDS011;20725;51.196;3.510;2022-08-07T09:38:35;1.00;;;0.90;;
15665;SDS011;20725;51.196;3.510;2022-08-07T09:41:14;0.88;;;0.80;;
15665;SDS011;20725;51.196;3.510;2022-08-07T09:44:08;1.27;;;0.90;;
15665;SDS011;20725;51.196;3.510;2022-08-07T09:46:54;2.67;;;1.00;;
15665;SDS011;20725;51.196;3.510;2022-08-07T09:49:42;0.63;;;0.63;;
15665;SDS011;20725;51.196;3.510;2022-08-07T09:52:36;1.45;;;0.85;;
15665;SDS011;20725;51.196;3.510;2022-08-07T09:55:13;1.25;;;0.82;;
15665;SDS011;20725;51.196;3.510;2022-08-07T10:00:55;1.23;;;0.85;;
15665;SDS011;20725;51.196;3.510;2022-08-07T10:03:40;1.80;;;0.60;;
15665;SDS011;20725;51.196;3.510;2022-08-07T10:06:45;1.58;;;0.80;;
15665;SDS011;20725;51.196;3.510;2022-08-07T10:16:15;1.45;;;0.85;;
15665;SDS011;20725;51.196;3.510;2022-08-07T10:19:14;2.47;;;0.80;;
15665;SDS011;20725;51.196;3.510;2022-08-07T10:21:55;1.73;;;0.88;;
15665;SDS011;20725;51.196;3.510;2022-08-07T10:24:56;1.50;;;0.80;;
15665;SDS011;20725;51.196;3.510;2022-08-07T10:28:10;1.10;;;0.88;;
15665;SDS011;20725;51.196;3.510;2022-08-07T10:31:04;2.88;;;1.13;;
15665;SDS011;20725;51.196;3.510;2022-08-07T10:33:52;4.25;;;1.17;;
15665;SDS011;20725;51.196;3.510;2022-08-07T10:36:41;1.10;;;1.00;;
15665;SDS011;20725;51.196;3.510;2022-08-07T10:39:27;3.08;;;1.00;;
15665;SDS011;20725;51.196;3.510;2022-08-07T10:42:06;2.20;;;1.02;;
15665;SDS011;20725;51.196;3.510;2022-08-07T10:44:51;1.50;;;1.00;;
15665;SDS011;20725;51.196;3.510;2022-08-07T10:47:49;2.33;;;0.80;;
15665;SDS011;20725;51.196;3.510;2022-08-07T10:50:28;2.97;;;1.17;;
15665;SDS011;20725;51.196;3.510;2022-08-07T10:53:06;1.92;;;1.00;;
15665;SDS011;20725;51.196;3.510;2022-08-07T10:55:48;1.55;;;0.93;;
15665;SDS011;20725;51.196;3.510;2022-08-07T10:58:37;1.95;;;1.10;;
15665;SDS011;20725;51.196;3.510;2022-08-07T11:01:28;2.95;;;0.90;;
15665;SDS011;20725;51.196;3.510;2022-08-07T11:04:11;0.75;;;0.70;;
15665;SDS011;20725;51.196;3.510;2022-08-07T11:06:59;0.95;;;0.90;;
15665;SDS011;20725;51.196;3.510;2022-08-07T11:09:43;1.17;;;0.90;;
15665;SDS011;20725;51.196;3.510;2022-08-07T11:12:25;2.00;;;1.00;;
15665;SDS011;20725;51.196;3.510;2022-08-07T11:15:05;1.48;;;0.90;;
15665;SDS011;20725;51.196;3.510;2022-08-07T11:17:42;4.32;;;1.00;;
15665;SDS011;20725;51.196;3.510;2022-08-07T11:20:45;2.80;;;1.00;;
15665;SDS011;20725;51.196;3.510;2022-08-07T11:24:07;2.13;;;1.30;;
15665;SDS011;20725;51.196;3.510;2022-08-07T11:26:54;1.48;;;0.90;;
15665;SDS011;20725;51.196;3.510;2022-08-07T11:29:32;3.88;;;1.02;;
15665;SDS011;20725;51.196;3.510;2022-08-07T11:32:07;1.73;;;1.10;;
15665;SDS011;20725;51.196;3.510;2022-08-07T11:34:48;2.35;;;1.50;;
15665;SDS011;20725;51.196;3.510;2022-08-07T11:37:25;1.50;;;1.27;;
15665;SDS011;20725;51.196;3.510;2022-08-07T11:40:18;5.20;;;1.23;;
15665;SDS011;20725;51.196;3.510;2022-08-07T11:43:10;3.15;;;1.30;;
15665;SDS011;20725;51.196;3.510;2022-08-07T11:45:53;1.67;;;1.20;;
15665;SDS011;20725;51.196;3.510;2022-08-07T11:48:49;1.33;;;1.00;;
15665;SDS011;20725;51.196;3.510;2022-08-07T11:51:46;1.08;;;1.00;;
15665;SDS011;20725;51.196;3.510;2022-08-07T11:54:35;1.90;;;1.13;;
15665;SDS011;20725;51.196;3.510;2022-08-07T11:57:31;1.75;;;1.08;;
15665;SDS011;20725;51.196;3.510;2022-08-07T12:00:08;3.05;;;1.00;;
15665;SDS011;20725;51.196;3.510;2022-08-07T12:05:54;1.20;;;0.70;;
15665;SDS011;20725;51.196;3.510;2022-08-07T12:08:46;2.03;;;0.80;;
15665;SDS011;20725;51.196;3.510;2022-08-07T12:11:30;4.13;;;1.10;;
15665;SDS011;20725;51.196;3.510;2022-08-07T12:14:12;0.73;;;0.52;;
15665;SDS011;20725;51.196;3.510;2022-08-07T12:16:54;1.77;;;0.82;;
15665;SDS011;20725;51.196;3.510;2022-08-07T12:22:39;1.67;;;0.75;;
15665;SDS011;20725;51.196;3.510;2022-08-07T12:25:18;2.67;;;0.90;;
15665;SDS011;20725;51.196;3.510;2022-08-07T12:28:22;4.57;;;0.95;;
15665;SDS011;20725;51.196;3.510;2022-08-07T12:31:07;1.17;;;0.80;;
15665;SDS011;20725;51.196;3.510;2022-08-07T12:33:47;1.73;;;0.75;;
15665;SDS011;20725;51.196;3.510;2022-08-07T12:39:14;0.60;;;0.60;;
15665;SDS011;20725;51.196;3.510;2022-08-07T12:41:49;3.20;;;0.98;;
15665;SDS011;20725;51.196;3.510;2022-08-07T12:44:30;1.95;;;0.75;;
15665;SDS011;20725;51.196;3.510;2022-08-07T12:47:03;0.60;;;0.60;;
15665;SDS011;20725;51.196;3.510;2022-08-07T12:49:48;2.40;;;0.70;;
15665;SDS011;20725;51.196;3.510;2022-08-07T12:52:34;1.48;;;0.75;;
15665;SDS011;20725;51.196;3.510;2022-08-07T12:55:17;1.25;;;0.77;;
15665;SDS011;20725;51.196;3.510;2022-08-07T12:57:55;2.90;;;0.80;;
15665;SDS011;20725;51.196;3.510;2022-08-07T13:00:36;1.00;;;0.90;;
15665;SDS011;20725;51.196;3.510;2022-08-07T13:03:35;3.95;;;1.10;;
15665;SDS011;20725;51.196;3.510;2022-08-07T13:06:24;0.98;;;0.95;;
15665;SDS011;20725;51.196;3.510;2022-08-07T13:09:10;2.42;;;0.95;;
15665;SDS011;20725;51.196;3.510;2022-08-07T13:11:53;2.50;;;1.42;;
15665;SDS011;20725;51.196;3.510;2022-08-07T13:14:34;1.55;;;1.23;;
15665;SDS011;20725;51.196;3.510;2022-08-07T13:17:14;1.92;;;1.50;;
15665;SDS011;20725;51.196;3.510;2022-08-07T13:19:49;1.42;;;1.00;;
15665;SDS011;20725;51.196;3.510;2022-08-07T13:22:23;2.83;;;1.27;;
15665;SDS011;20725;51.196;3.510;2022-08-07T13:25:10;1.50;;;0.88;;
15665;SDS011;20725;51.196;3.510;2022-08-07T13:27:49;1.92;;;1.02;;
15665;SDS011;20725;51.196;3.510;2022-08-07T13:30:26;2.80;;;1.30;;
15665;SDS011;20725;51.196;3.510;2022-08-07T13:33:06;4.22;;;1.33;;
15665;SDS011;20725;51.196;3.510;2022-08-07T13:35:53;3.70;;;1.20;;
15665;SDS011;20725;51.196;3.510;2022-08-07T13:38:30;1.80;;;1.17;;
15665;SDS011;20725;51.196;3.510;2022-08-07T13:41:32;2.55;;;1.13;;
15665;SDS011;20725;51.196;3.510;2022-08-07T13:44:06;1.05;;;0.90;;
15665;SDS011;20725;51.196;3.510;2022-08-07T13:49:26;1.23;;;0.90;;
15665;SDS011;20725;51.196;3.510;2022-08-07T13:52:02;1.10;;;0.82;;
15665;SDS011;20725;51.196;3.510;2022-08-07T13:54:33;1.23;;;0.93;;
15665;SDS011;20725;51.196;3.510;2022-08-07T13:59:56;1.50;;;1.10;;
15665;SDS011;20725;51.196;3.510;2022-08-07T14:03:10;2.13;;;1.30;;
15665;SDS011;20725;51.196;3.510;2022-08-07T14:05:58;3.28;;;1.20;;
15665;SDS011;20725;51.196;3.510;2022-08-07T14:08:42;2.88;;;1.38;;
15665;SDS011;20725;51.196;3.510;2022-08-07T14:11:32;4.32;;;1.40;;
15665;SDS011;20725;51.196;3.510;2022-08-07T14:14:29;3.00;;;1.60;;
15665;SDS011;20725;51.196;3.510;2022-08-07T14:17:04;1.13;;;1.00;;
15665;SDS011;20725;51.196;3.510;2022-08-07T14:19:34;1.20;;;1.10;;
15665;SDS011;20725;51.196;3.510;2022-08-07T14:22:22;2.53;;;1.30;;
15665;SDS011;20725;51.196;3.510;2022-08-07T14:25:00;2.78;;;1.30;;
15665;SDS011;20725;51.196;3.510;2022-08-07T14:27:34;2.85;;;1.02;;
15665;SDS011;20725;51.196;3.510;2022-08-07T14:30:09;3.70;;;1.35;;
15665;SDS011;20725;51.196;3.510;2022-08-07T14:32:39;3.10;;;1.65;;
15665;SDS011;20725;51.196;3.510;2022-08-07T14:35:14;2.78;;;1.40;;
15665;SDS011;20725;51.196;3.510;2022-08-07T14:37:51;1.70;;;1.50;;
15665;SDS011;20725;51.196;3.510;2022-08-07T14:40:24;1.33;;;1.23;;
15665;SDS011;20725;51.196;3.510;2022-08-07T14:43:02;2.13;;;1.42;;
15665;SDS011;20725;51.196;3.510;2022-08-07T14:48:38;2.15;;;1.65;;
15665;SDS011;20725;51.196;3.510;2022-08-07T14:51:09;2.92;;;1.30;;
15665;SDS011;20725;51.196;3.510;2022-08-07T14:53:41;2.85;;;1.40;;
15665;SDS011;20725;51.196;3.510;2022-08-07T14:56:17;2.28;;;1.35;;
15665;SDS011;20725;51.196;3.510;2022-08-07T14:58:49;4.68;;;1.52;;
15665;SDS011;20725;51.196;3.510;2022-08-07T15:01:36;4.68;;;1.40;;
15665;SDS011;20725;51.196;3.510;2022-08-07T15:04:07;3.05;;;1.55;;
15665;SDS011;20725;51.196;3.510;2022-08-07T15:06:41;1.90;;;1.70;;
15665;SDS011;20725;51.196;3.510;2022-08-07T15:09:15;1.77;;;1.48;;
15665;SDS011;20725;51.196;3.510;2022-08-07T15:11:52;3.42;;;1.55;;
15665;SDS011;20725;51.196;3.510;2022-08-07T15:14:29;2.90;;;1.70;;
15665;SDS011;20725;51.196;3.510;2022-08-07T15:17:11;2.38;;;1.63;;
15665;SDS011;20725;51.196;3.510;2022-08-07T15:19:45;2.80;;;1.45;;
15665;SDS011;20725;51.196;3.510;2022-08-07T15:22:17;2.67;;;1.63;;
15665;SDS011;20725;51.196;3.510;2022-08-07T15:24:55;3.70;;;1.83;;
15665;SDS011;20725;51.196;3.510;2022-08-07T15:27:38;3.03;;;1.73;;
15665;SDS011;20725;51.196;3.510;2022-08-07T15:30:16;2.83;;;1.58;;
15665;SDS011;20725;51.196;3.510;2022-08-07T15:32:51;2.92;;;2.00;;
15665;SDS011;20725;51.196;3.510;2022-08-07T15:35:24;3.55;;;1.92;;
15665;SDS011;20725;51.196;3.510;2022-08-07T15:37:53;4.95;;;1.90;;
15665;SDS011;20725;51.196;3.510;2022-08-07T15:40:30;2.33;;;1.80;;
15665;SDS011;20725;51.196;3.510;2022-08-07T15:43:14;3.35;;;2.10;;
15665;SDS011;20725;51.196;3.510;2022-08-07T15:45:47;2.55;;;1.77;;
15665;SDS011;20725;51.196;3.510;2022-08-07T15:48:21;3.53;;;1.92;;
15665;SDS011;20725;51.196;3.510;2022-08-07T15:50:51;2.45;;;1.90;;
15665;SDS011;20725;51.196;3.510;2022-08-07T15:53:25;2.17;;;1.80;;
15665;SDS011;20725;51.196;3.510;2022-08-07T15:55:58;4.18;;;2.00;;
15665;SDS011;20725;51.196;3.510;2022-08-07T15:58:40;6.97;;;1.83;;
15665;SDS011;20725;51.196;3.510;2022-08-07T16:01:18;2.00;;;1.65;;
15665;SDS011;20725;51.196;3.510;2022-08-07T16:03:58;4.97;;;1.65;;
15665;SDS011;20725;51.196;3.510;2022-08-07T16:06:53;2.80;;;1.90;;
15665;SDS011;20725;51.196;3.510;2022-08-07T16:09:40;3.17;;;1.83;;
15665;SDS011;20725;51.196;3.510;2022-08-07T16:12:20;3.30;;;1.98;;
15665;SDS011;20725;51.196;3.510;2022-08-07T16:15:03;2.22;;;1.60;;
15665;SDS011;20725;51.196;3.510;2022-08-07T16:17:54;4.82;;;1.73;;
15665;SDS011;20725;51.196;3.510;2022-08-07T16:20:50;6.25;;;1.90;;
15665;SDS011;20725;51.196;3.510;2022-08-07T16:23:31;2.13;;;1.65;;
15665;SDS011;20725;51.196;3.510;2022-08-07T16:26:31;3.87;;;2.00;;
15665;SDS011;20725;51.196;3.510;2022-08-07T16:29:11;2.72;;;2.03;;
15665;SDS011;20725;51.196;3.510;2022-08-07T16:31:54;2.63;;;1.90;;
15665;SDS011;20725;51.196;3.510;2022-08-07T16:34:41;2.35;;;1.77;;
15665;SDS011;20725;51.196;3.510;2022-08-07T16:37:32;4.03;;;1.90;;
15665;SDS011;20725;51.196;3.510;2022-08-07T16:46:55;4.10;;;1.83;;
15665;SDS011;20725;51.196;3.510;2022-08-07T16:52:58;2.43;;;1.97;;
15665;SDS011;20725;51.196;3.510;2022-08-07T16:55:51;2.53;;;2.30;;